createdAt,value
2019-02-28T00:03:09.487Z,48.50
2019-02-28T00:07:17.637Z,48.10
2019-02-28T00:11:20.856Z,47.90
2019-02-28T00:15:25.717Z,47.60
2019-02-28T00:19:30.532Z,48.00
2019-02-28T00:23:35.412Z,48.40
2019-02-28T00:27:40.214Z,48.00
2019-02-28T00:31:49.519Z,48.50
2019-02-28T00:35:51.894Z,49.50
2019-02-28T00:39:56.796Z,50.00
2019-02-28T00:44:01.672Z,50.80
2019-02-28T00:48:06.828Z,51.20
2019-02-28T00:52:11.640Z,51.60
2019-02-28T00:56:17.519Z,51.10
2019-02-28T01:00:23.297Z,50.60
2019-02-28T01:04:29.945Z,50.10
2019-02-28T01:08:34.530Z,49.80
2019-02-28T01:12:41.789Z,49.70
2019-02-28T01:16:46.588Z,49.20
2019-02-28T01:20:51.692Z,48.90
2019-02-28T01:24:56.496Z,48.90
2019-02-28T01:29:02.079Z,48.70
2019-02-28T01:33:07.873Z,48.80
2019-02-28T01:37:13.344Z,48.90
2019-02-28T01:41:18.442Z,48.70
2019-02-28T01:45:23.393Z,48.80
2019-02-28T01:49:28.138Z,49.10
2019-02-28T01:53:34.009Z,49.40
2019-02-28T01:57:42.335Z,49.20
2019-02-28T02:01:45.273Z,48.90
2019-02-28T02:05:51.712Z,49.20
2019-02-28T02:09:56.795Z,48.90
2019-02-28T02:14:01.527Z,49.00
2019-02-28T02:18:09.290Z,48.70
2019-02-28T02:22:12.951Z,48.80
2019-02-28T02:26:17.812Z,48.60
2019-02-28T02:30:23.421Z,48.40
2019-02-28T02:34:29.497Z,48.30
2019-02-28T02:38:39.832Z,48.40
2019-02-28T02:42:47.637Z,48.20
2019-02-28T02:46:48.160Z,48.50
2019-02-28T02:50:53.194Z,49.50
2019-02-28T02:54:59.326Z,50.00
2019-02-28T02:59:04.268Z,50.30
2019-02-28T03:03:09.394Z,50.80
2019-02-28T03:07:14.280Z,50.90
2019-02-28T03:11:24.755Z,51.30
2019-02-28T03:15:27.431Z,51.00
2019-02-28T03:19:33.732Z,51.00
2019-02-28T03:23:40.499Z,51.50
2019-02-28T03:27:45.428Z,51.40
2019-02-28T03:31:56.801Z,51.80
2019-02-28T03:35:56.836Z,50.90
2019-02-28T03:40:04.411Z,50.70
2019-02-28T03:44:08.354Z,50.10
2019-02-28T03:48:13.114Z,50.30
2019-02-28T03:52:18.150Z,50.30
2019-02-28T03:56:23.228Z,50.40
2019-02-28T04:00:32.732Z,51.00
2019-02-28T04:04:34.792Z,51.00
2019-02-28T04:08:39.588Z,51.10
2019-02-28T04:12:45.645Z,51.60
2019-02-28T04:16:54.159Z,52.00
2019-02-28T04:20:57.497Z,51.90
2019-02-28T04:25:02.294Z,52.20
2019-02-28T04:29:07.096Z,53.10
2019-02-28T04:33:12.157Z,53.20
2019-02-28T04:37:16.878Z,53.60
2019-02-28T04:41:21.771Z,53.80
2019-02-28T04:45:27.064Z,53.60
2019-02-28T04:49:32.049Z,53.80
2019-02-28T04:53:36.924Z,53.80
2019-02-28T04:57:41.721Z,53.80
2019-02-28T05:01:46.868Z,54.20
2019-02-28T05:05:51.600Z,54.50
2019-02-28T05:09:56.505Z,54.50
2019-02-28T05:14:01.316Z,54.40
2019-02-28T05:18:06.158Z,54.30
2019-02-28T05:22:11.155Z,54.20
2019-02-28T05:26:16.020Z,54.30
2019-02-28T05:30:21.142Z,54.20
2019-02-28T05:34:25.876Z,54.00
2019-02-28T05:38:34.226Z,53.90
2019-02-28T05:42:39.284Z,54.10
2019-02-28T05:46:44.245Z,54.00
2019-02-28T05:50:52.849Z,54.20
2019-02-28T05:54:55.449Z,54.70
2019-02-28T05:59:00.314Z,54.60
2019-02-28T06:03:05.384Z,55.20
2019-02-28T06:07:10.428Z,55.50
2019-02-28T06:11:15.403Z,55.20
2019-02-28T06:15:20.680Z,54.50
2019-02-28T06:19:25.800Z,55.20
2019-02-28T06:23:30.592Z,55.20
2019-02-28T06:27:41.714Z,55.40
2019-02-28T06:31:45.492Z,55.20
2019-02-28T06:35:49.504Z,55.30
2019-02-28T06:39:58.635Z,55.20
2019-02-28T06:44:02.269Z,54.30
2019-02-28T06:48:07.158Z,54.10
2019-02-28T06:52:12.040Z,54.00
2019-02-28T06:56:21.854Z,53.20
2019-02-28T07:00:28.859Z,52.90
2019-02-28T07:04:33.849Z,52.60
2019-02-28T07:08:38.639Z,52.10
2019-02-28T07:12:43.600Z,52.20
2019-02-28T07:16:48.479Z,52.00
2019-02-28T07:20:53.580Z,51.80
2019-02-28T07:24:58.408Z,51.50
2019-02-28T07:29:03.276Z,50.80
2019-02-28T07:33:10.465Z,50.30
2019-02-28T07:37:18.582Z,50.20
2019-02-28T07:41:26.345Z,49.90
2019-02-28T07:45:29.637Z,49.40
2019-02-28T07:49:36.731Z,48.50
2019-02-28T07:53:41.968Z,47.70
2019-02-28T07:57:51.126Z,47.30
2019-02-28T08:01:53.886Z,46.70
2019-02-28T08:06:04.496Z,45.90
2019-02-28T08:10:07.500Z,45.00
2019-02-28T08:14:12.961Z,44.30
2019-02-28T08:18:18.932Z,44.00
2019-02-28T08:22:24.771Z,42.90
2019-02-28T08:26:29.967Z,41.90
2019-02-28T08:30:34.893Z,41.30
2019-02-28T08:34:39.920Z,40.80
2019-02-28T08:38:44.792Z,40.50
2019-02-28T08:42:50.104Z,39.50
2019-02-28T08:46:55.255Z,39.50
2019-02-28T08:51:00.243Z,38.80
2019-02-28T08:55:07.741Z,38.60
2019-02-28T08:59:18.494Z,38.20
2019-02-28T09:03:19.616Z,38.50
2019-02-28T09:07:24.523Z,38.70
2019-02-28T09:11:30.605Z,38.20
2019-02-28T09:15:37.153Z,38.00
2019-02-28T09:19:41.957Z,37.70
2019-02-28T09:23:46.857Z,37.70
2019-02-28T09:27:51.768Z,37.20
2019-02-28T09:31:56.757Z,37.70
2019-02-28T09:36:01.584Z,36.70
2019-02-28T09:40:07.803Z,36.50
2019-02-28T09:44:13.539Z,36.20
2019-02-28T09:48:19.719Z,36.30
2019-02-28T09:52:24.624Z,35.90
2019-02-28T09:56:29.437Z,35.50
2019-02-28T10:00:34.537Z,35.00
2019-02-28T10:04:39.714Z,35.30
2019-02-28T10:08:44.462Z,34.30
2019-02-28T10:12:49.366Z,34.00
2019-02-28T10:16:54.193Z,33.30
2019-02-28T10:21:01.792Z,33.40
2019-02-28T10:25:06.656Z,33.70
2019-02-28T10:29:12.022Z,33.10
2019-02-28T10:33:17.296Z,33.10
2019-02-28T10:37:23.611Z,32.40
2019-02-28T10:41:31.248Z,32.40
2019-02-28T10:45:41.061Z,33.10
2019-02-28T10:49:42.460Z,33.20
2019-02-28T10:53:47.288Z,33.30
2019-02-28T10:57:52.267Z,34.20
2019-02-28T11:01:57.175Z,34.00
2019-02-28T11:06:02.081Z,34.20
2019-02-28T11:10:07.213Z,34.20
2019-02-28T11:14:12.378Z,33.90
2019-02-28T11:18:17.883Z,33.80
2019-02-28T11:22:23.056Z,32.60
2019-02-28T11:26:28.301Z,33.00
2019-02-28T11:30:33.801Z,33.20
2019-02-28T11:34:38.694Z,32.80
2019-02-28T11:38:43.902Z,33.00
2019-02-28T11:42:48.998Z,32.60
2019-02-28T11:46:55.156Z,31.50
2019-02-28T11:51:00.070Z,31.40
2019-02-28T11:55:05.534Z,32.40
2019-02-28T11:59:11.014Z,32.50
2019-02-28T12:03:16.352Z,31.80
2019-02-28T12:07:21.241Z,32.00
2019-02-28T12:11:26.142Z,32.10
2019-02-28T12:15:30.948Z,31.70
2019-02-28T12:19:35.781Z,32.40
2019-02-28T12:23:40.623Z,32.80
2019-02-28T12:27:46.581Z,31.80
2019-02-28T12:31:51.428Z,31.90
2019-02-28T12:35:56.140Z,31.50
2019-02-28T12:40:01.044Z,32.10
2019-02-28T12:44:06.924Z,32.20
2019-02-28T12:48:13.771Z,31.00
2019-02-28T12:52:18.442Z,30.80
2019-02-28T12:56:23.309Z,31.40
2019-02-28T13:00:33.834Z,31.00
2019-02-28T13:04:38.659Z,30.20
2019-02-28T13:08:43.495Z,30.00
2019-02-28T13:12:49.778Z,30.40
2019-02-28T13:16:57.598Z,29.40
2019-02-28T13:21:01.470Z,29.50
2019-02-28T13:25:11.814Z,29.70
2019-02-28T13:29:16.848Z,29.40
2019-02-28T13:33:21.728Z,28.70
2019-02-28T13:37:26.687Z,29.00
2019-02-28T13:41:31.428Z,28.90
2019-02-28T13:45:36.187Z,28.90
2019-02-28T13:49:42.312Z,29.30
2019-02-28T13:53:47.323Z,29.80
2019-02-28T13:57:52.173Z,29.50
2019-02-28T14:01:57.082Z,29.20
2019-02-28T14:06:01.843Z,29.00
2019-02-28T14:10:11.397Z,28.90
2019-02-28T14:14:16.983Z,28.30
2019-02-28T14:18:21.745Z,29.20
2019-02-28T14:22:26.736Z,29.50
2019-02-28T14:26:32.472Z,29.80
2019-02-28T14:30:37.464Z,29.90
2019-02-28T14:34:42.212Z,29.60
2019-02-28T14:38:47.113Z,29.60
2019-02-28T14:42:52.124Z,29.90
2019-02-28T14:46:57.094Z,29.20
2019-02-28T14:51:03.092Z,28.80
2019-02-28T14:55:10.645Z,29.40
2019-02-28T14:59:15.475Z,28.90
2019-02-28T15:03:20.328Z,29.00
2019-02-28T15:07:25.071Z,29.90
2019-02-28T15:11:30.373Z,31.50
2019-02-28T15:15:36.441Z,31.50
2019-02-28T15:19:45.689Z,31.70
2019-02-28T15:23:50.585Z,32.20
2019-02-28T15:27:57.316Z,32.20
2019-02-28T15:32:01.922Z,32.80
2019-02-28T15:36:06.827Z,32.60
2019-02-28T15:40:16.313Z,32.60
2019-02-28T15:44:22.124Z,32.90
2019-02-28T15:48:27.940Z,32.90
2019-02-28T15:52:32.780Z,34.20
2019-02-28T15:56:38.327Z,33.30
2019-02-28T16:00:43.481Z,33.10
2019-02-28T16:04:48.624Z,32.90
2019-02-28T16:08:53.507Z,32.80
2019-02-28T16:12:58.588Z,32.30
2019-02-28T16:17:03.616Z,32.10
2019-02-28T16:21:08.680Z,32.00
2019-02-28T16:25:18.973Z,32.30
2019-02-28T16:29:23.893Z,32.20
2019-02-28T16:33:28.711Z,33.00
2019-02-28T16:37:34.995Z,32.80
2019-02-28T16:41:39.913Z,33.20
2019-02-28T16:45:48.050Z,33.50
2019-02-28T16:49:52.888Z,33.90
2019-02-28T16:53:58.083Z,33.90
2019-02-28T16:58:04.498Z,34.40
2019-02-28T17:02:10.214Z,34.60
2019-02-28T17:06:15.640Z,35.20
2019-02-28T17:10:25.255Z,35.90
2019-02-28T17:14:30.163Z,36.60
2019-02-28T17:18:36.188Z,37.40
2019-02-28T17:22:40.943Z,37.30
2019-02-28T17:27:06.337Z,38.00
2019-02-28T17:31:19.725Z,37.90
2019-02-28T17:35:24.551Z,38.00
2019-02-28T17:39:30.620Z,38.30
2019-02-28T17:43:37.514Z,38.10
2019-02-28T17:48:53.886Z,38.20
2019-02-28T17:53:36.548Z,38.50
2019-02-28T17:57:56.012Z,39.00
2019-02-28T18:02:20.020Z,39.10
2019-02-28T18:07:04.944Z,39.10
2019-02-28T18:11:38.551Z,39.40
2019-02-28T18:16:27.897Z,40.00
2019-02-28T18:21:07.448Z,40.70
2019-02-28T18:25:53.406Z,41.10
2019-02-28T18:30:48.892Z,41.70
2019-02-28T18:34:56.263Z,41.80
2019-02-28T18:39:00.240Z,42.00
2019-02-28T18:43:05.753Z,42.10
2019-02-28T18:47:10.690Z,42.00
2019-02-28T18:51:16.720Z,42.30
2019-02-28T18:55:22.003Z,42.70
2019-02-28T18:59:27.218Z,42.80
2019-02-28T19:03:32.128Z,42.30
2019-02-28T19:07:37.024Z,42.60
2019-02-28T19:11:41.896Z,42.50
2019-02-28T19:15:46.822Z,43.00
2019-02-28T19:19:52.029Z,43.30
2019-02-28T19:23:57.128Z,43.60
2019-02-28T19:28:02.992Z,43.90
2019-02-28T19:32:07.832Z,43.80
2019-02-28T19:36:12.656Z,44.40
2019-02-28T19:40:18.734Z,44.60
2019-02-28T19:44:23.536Z,44.70
2019-02-28T19:48:28.322Z,44.70
2019-02-28T19:52:33.095Z,45.00
2019-02-28T19:56:37.849Z,44.50
2019-02-28T20:00:42.829Z,44.60
2019-02-28T20:04:47.737Z,44.70
2019-02-28T20:08:53.616Z,45.20
2019-02-28T20:12:58.525Z,45.40
2019-02-28T20:17:03.428Z,45.60
2019-02-28T20:21:09.152Z,45.90
2019-02-28T20:25:15.223Z,45.90
2019-02-28T20:29:20.751Z,46.20
2019-02-28T20:33:25.584Z,46.00
2019-02-28T20:37:30.674Z,46.10
2019-02-28T20:41:35.461Z,46.40
2019-02-28T20:45:40.343Z,46.70
2019-02-28T20:49:45.539Z,47.10
2019-02-28T20:53:50.824Z,47.30
2019-02-28T20:57:55.664Z,47.80
2019-02-28T21:02:00.535Z,48.50
2019-02-28T21:06:05.411Z,48.60
2019-02-28T21:10:12.002Z,48.90
2019-02-28T21:14:17.025Z,49.00
2019-02-28T21:18:22.075Z,48.40
2019-02-28T21:22:27.332Z,49.00
2019-02-28T21:26:35.929Z,49.00
2019-02-28T21:30:42.096Z,49.70
2019-02-28T21:34:47.260Z,50.10
2019-02-28T21:38:52.080Z,50.70
2019-02-28T21:42:56.997Z,51.00
2019-02-28T21:47:02.122Z,51.20
2019-02-28T21:51:07.321Z,51.40
2019-02-28T21:55:13.033Z,51.70
2019-02-28T21:59:18.068Z,52.40
2019-02-28T22:03:23.052Z,52.60
2019-02-28T22:07:28.217Z,53.00
2019-02-28T22:11:33.240Z,53.50
2019-02-28T22:15:38.392Z,54.00
2019-02-28T22:19:43.347Z,54.40
2019-02-28T22:23:48.131Z,55.10
2019-02-28T22:27:53.024Z,56.00
2019-02-28T22:32:07.120Z,55.20
2019-02-28T22:36:14.050Z,56.40
2019-02-28T22:40:19.216Z,57.50
2019-02-28T22:44:23.966Z,58.50
2019-02-28T22:48:28.881Z,59.30
2019-02-28T22:52:34.046Z,59.80
2019-02-28T22:56:38.870Z,59.90
2019-02-28T23:00:58.546Z,60.20
2019-02-28T23:05:04.995Z,60.00
2019-02-28T23:09:11.096Z,60.40
2019-02-28T23:13:16.287Z,61.10
2019-02-28T23:17:21.096Z,61.60
2019-02-28T23:21:25.980Z,62.40
2019-02-28T23:25:30.801Z,62.80
2019-02-28T23:29:35.624Z,62.70
2019-02-28T23:33:40.485Z,62.90
2019-02-28T23:37:45.375Z,63.40
2019-02-28T23:41:50.450Z,63.10
2019-02-28T23:45:55.337Z,63.10
2019-02-28T23:50:00.558Z,61.90
2019-02-28T23:54:05.488Z,61.90
2019-02-28T23:58:10.279Z,61.90
